Time;durP1;ratioP1;P1;durP2;ratioP2;P2;SDS_P1;SDS_P2;PMS_P1;PMS_P2;Temp;Humidity;BMP_temperature;BMP_pressure;BME280_temperature;BME280_humidity;BME280_pressure;Samples;Min_cycle;Max_cycle;Signal;HPM_P1;HPM_P2
2022/02/27 00:04:08;;;;;;;8.18;2.78;;;2.50;99.90;;;;;;10345928;28;20107;-62
2022/02/27 00:09:10;;;;;;;6.95;2.67;;;2.50;99.90;;;;;;10355359;28;20057;-61
2022/02/27 00:14:12;;;;;;;10.38;3.10;;;2.30;99.90;;;;;;10333383;28;20057;-61
2022/02/27 00:19:14;;;;;;;11.52;3.20;;;2.30;99.90;;;;;;10341043;28;20054;-61
2022/02/27 00:24:16;;;;;;;19.80;3.65;;;2.10;99.90;;;;;;10341755;28;20144;-61
2022/02/27 00:29:18;;;;;;;10.18;3.30;;;2.00;99.90;;;;;;10349474;28;20070;-62
2022/02/27 00:34:19;;;;;;;15.38;3.63;;;1.90;99.90;;;;;;10345951;28;20492;-61
2022/02/27 00:39:21;;;;;;;7.38;3.10;;;1.70;99.90;;;;;;10349324;28;20057;-61
2022/02/27 00:44:23;;;;;;;10.35;3.35;;;1.60;99.90;;;;;;10341399;28;20048;-62
2022/02/27 00:49:25;;;;;;;10.80;3.33;;;1.50;99.90;;;;;;10343515;28;20053;-61
2022/02/27 00:54:28;;;;;;;16.45;3.45;;;1.40;99.90;;;;;;10345219;28;20042;-60
2022/02/27 00:59:30;;;;;;;9.38;2.80;;;1.30;99.90;;;;;;10346461;28;20049;-61
2022/02/27 01:04:31;;;;;;;9.45;3.08;;;1.20;99.90;;;;;;10344225;28;20104;-62
2022/02/27 01:09:34;;;;;;;13.50;2.50;;;1.10;99.90;;;;;;10338879;28;20054;-61
2022/02/27 01:14:35;;;;;;;9.98;2.03;;;1.00;99.90;;;;;;10339237;28;20046;-61
2022/02/27 01:19:39;;;;;;;11.77;2.10;;;0.90;99.90;;;;;;10348815;28;20088;-61
2022/02/27 01:24:41;;;;;;;9.18;2.22;;;0.80;99.90;;;;;;10344286;28;20058;-62
2022/02/27 01:29:43;;;;;;;13.23;2.40;;;0.70;99.90;;;;;;10343972;28;20119;-60
2022/02/27 01:34:48;;;;;;;5.65;2.97;;;0.60;99.90;;;;;;10350531;28;20049;-63
2022/02/27 01:39:50;;;;;;;8.77;2.13;;;0.50;99.90;;;;;;10344987;28;20050;-61
2022/02/27 01:44:52;;;;;;;6.32;1.77;;;0.50;99.90;;;;;;10338787;28;20042;-62
2022/02/27 01:49:55;;;;;;;7.53;1.70;;;0.40;99.90;;;;;;10344279;28;20127;-61
2022/02/27 01:54:58;;;;;;;9.80;2.30;;;0.40;99.90;;;;;;10342574;28;20556;-61
2022/02/27 02:00:04;;;;;;;7.03;2.45;;;0.40;99.90;;;;;;10342458;28;20065;-61
2022/02/27 02:05:06;;;;;;;5.70;2.35;;;0.30;99.90;;;;;;10343401;28;20463;-61
2022/02/27 02:10:08;;;;;;;10.38;1.30;;;0.30;99.90;;;;;;10341869;28;20065;-61
2022/02/27 02:15:11;;;;;;;4.97;1.33;;;0.30;99.90;;;;;;10335433;28;20049;-62
2022/02/27 02:20:18;;;;;;;5.85;1.27;;;0.30;99.90;;;;;;10343969;28;20046;-61
2022/02/27 02:25:19;;;;;;;8.25;1.52;;;0.30;99.90;;;;;;10348409;28;20058;-61
2022/02/27 02:30:24;;;;;;;12.18;1.40;;;0.20;99.90;;;;;;10344905;28;20050;-61
2022/02/27 02:35:27;;;;;;;10.57;1.42;;;0.20;99.90;;;;;;10346328;28;20037;-61
2022/02/27 02:40:28;;;;;;;4.15;1.48;;;0.10;99.90;;;;;;10344770;28;20131;-62
2022/02/27 02:45:30;;;;;;;8.30;1.17;;;0.10;99.90;;;;;;10334466;28;20053;-62
2022/02/27 02:50:32;;;;;;;5.63;1.35;;;0.00;99.90;;;;;;10343003;28;20049;-62
2022/02/27 02:55:34;;;;;;;6.57;1.92;;;0.00;99.90;;;;;;10342216;28;20050;-60
2022/02/27 03:00:35;;;;;;;5.10;1.38;;;-0.10;99.90;;;;;;10338304;28;20056;-61
2022/02/27 03:05:37;;;;;;;8.45;1.50;;;-0.20;99.90;;;;;;10331596;28;20077;-60
2022/02/27 03:10:39;;;;;;;5.15;1.50;;;-0.30;99.90;;;;;;10345466;28;20057;-61
2022/02/27 03:15:41;;;;;;;4.32;1.35;;;-0.30;99.90;;;;;;10337129;28;20089;-62
2022/02/27 03:20:43;;;;;;;8.93;1.42;;;-0.40;99.90;;;;;;10335854;28;20121;-61
2022/02/27 03:25:44;;;;;;;11.27;1.27;;;-0.50;99.90;;;;;;10341273;28;20070;-60
2022/02/27 03:30:46;;;;;;;5.90;1.42;;;-0.50;99.90;;;;;;10339744;28;20531;-62
2022/02/27 03:35:48;;;;;;;5.63;1.30;;;-0.50;99.90;;;;;;10347563;28;20042;-61
2022/02/27 03:40:50;;;;;;;3.33;0.95;;;-0.50;99.90;;;;;;10346549;28;20104;-61
2022/02/27 03:45:51;;;;;;;7.10;1.00;;;-0.50;99.90;;;;;;10350246;28;20045;-62
2022/02/27 03:50:53;;;;;;;8.65;1.58;;;-0.50;99.90;;;;;;10345705;28;20424;-62
2022/02/27 03:55:55;;;;;;;5.80;0.90;;;-0.50;99.90;;;;;;10343409;28;20081;-61
2022/02/27 04:00:56;;;;;;;5.47;0.95;;;-0.50;99.90;;;;;;10345344;28;20042;-62
2022/02/27 04:05:58;;;;;;;3.15;0.90;;;-0.50;99.90;;;;;;10355341;28;20058;-62
2022/02/27 04:11:02;;;;;;;9.90;1.15;;;-0.60;99.90;;;;;;10351810;28;20074;-61
2022/02/27 04:16:04;;;;;;;5.18;1.33;;;-0.60;99.90;;;;;;10341833;28;20116;-60
2022/02/27 04:21:06;;;;;;;4.60;1.40;;;-0.60;99.90;;;;;;10346055;28;20124;-61
2022/02/27 04:26:07;;;;;;;4.90;0.95;;;-0.50;99.90;;;;;;10343085;28;20057;-60
2022/02/27 04:31:09;;;;;;;5.10;1.20;;;-0.50;99.90;;;;;;10348975;28;20065;-61
2022/02/27 04:36:14;;;;;;;4.05;1.00;;;-0.40;99.90;;;;;;10347898;28;20315;-60
2022/02/27 04:41:18;;;;;;;1.85;0.93;;;-0.40;99.90;;;;;;10341173;28;20073;-61
2022/02/27 04:46:19;;;;;;;5.68;1.00;;;-0.40;99.90;;;;;;10340167;28;20107;-61
2022/02/27 04:51:21;;;;;;;5.60;0.93;;;-0.40;99.90;;;;;;10345036;28;20065;-60
2022/02/27 04:56:23;;;;;;;6.63;1.10;;;-0.40;99.90;;;;;;10339648;28;20081;-61
2022/02/27 05:01:24;;;;;;;7.68;1.20;;;-0.40;99.90;;;;;;10340448;28;20082;-61
2022/02/27 05:06:27;;;;;;;3.20;1.05;;;-0.30;99.90;;;;;;10336769;28;20100;-61
2022/02/27 05:11:29;;;;;;;5.55;1.02;;;-0.30;99.90;;;;;;10345562;28;20103;-61
2022/02/27 05:16:30;;;;;;;4.30;1.00;;;-0.30;99.90;;;;;;10346973;28;20050;-60
2022/02/27 05:21:32;;;;;;;4.50;1.05;;;-0.20;99.90;;;;;;10338368;28;20049;-61
2022/02/27 05:26:34;;;;;;;19.10;4.20;;;-0.20;99.90;;;;;;10353026;28;20049;-61
2022/02/27 05:31:36;;;;;;;16.08;5.15;;;-0.20;99.90;;;;;;10344873;28;20101;-62
2022/02/27 05:36:39;;;;;;;7.32;2.95;;;-0.20;99.90;;;;;;10332168;28;20116;-61
2022/02/27 05:41:42;;;;;;;8.63;2.40;;;-0.20;99.90;;;;;;10343321;28;20065;-61
2022/02/27 05:46:44;;;;;;;7.55;2.30;;;-0.30;99.90;;;;;;10347815;28;20042;-61
2022/02/27 05:51:47;;;;;;;7.30;1.88;;;-0.40;99.90;;;;;;10344787;28;20574;-61
2022/02/27 05:56:49;;;;;;;9.73;3.08;;;-0.50;99.90;;;;;;10348814;28;20056;-61
2022/02/27 06:01:51;;;;;;;10.75;2.53;;;-0.50;99.90;;;;;;10342354;28;20050;-60
2022/02/27 06:06:52;;;;;;;11.38;1.83;;;-0.60;99.90;;;;;;10334717;28;20057;-61
2022/02/27 06:11:54;;;;;;;6.43;1.65;;;-0.70;99.90;;;;;;10341289;28;20571;-64
2022/02/27 06:16:56;;;;;;;6.88;1.50;;;-0.80;99.90;;;;;;10341765;28;20681;-64
2022/02/27 06:21:57;;;;;;;4.70;1.13;;;-0.80;99.90;;;;;;10343621;28;20294;-63
2022/02/27 06:26:59;;;;;;;6.70;1.35;;;-0.80;99.90;;;;;;10346321;28;20057;-63
2022/02/27 06:32:01;;;;;;;4.60;1.55;;;-0.80;99.90;;;;;;10351015;28;20046;-64
2022/02/27 06:37:03;;;;;;;7.50;1.75;;;-0.80;99.90;;;;;;10333840;28;20041;-64
2022/02/27 06:42:05;;;;;;;10.68;1.15;;;-0.80;99.90;;;;;;10345883;28;20041;-64
2022/02/27 06:47:06;;;;;;;8.55;1.42;;;-0.70;99.90;;;;;;10339909;28;20093;-64
2022/02/27 06:52:08;;;;;;;7.07;1.20;;;-0.70;99.90;;;;;;10341031;28;20459;-64
2022/02/27 06:57:10;;;;;;;3.58;1.10;;;-0.60;99.90;;;;;;10343029;28;20280;-64
2022/02/27 07:02:12;;;;;;;5.60;1.23;;;-0.50;99.90;;;;;;10333947;28;20501;-64
2022/02/27 07:07:14;;;;;;;5.68;1.70;;;-0.50;99.90;;;;;;10342769;28;20416;-64
2022/02/27 07:12:16;;;;;;;4.93;1.50;;;-0.40;99.90;;;;;;10344840;28;20053;-64
2022/02/27 07:17:18;;;;;;;4.07;1.10;;;-0.30;99.90;;;;;;10344989;28;20080;-64
2022/02/27 07:22:20;;;;;;;6.25;1.50;;;-0.10;99.90;;;;;;10348233;28;20129;-64
2022/02/27 07:27:22;;;;;;;7.22;1.83;;;0.00;99.90;;;;;;10347329;28;20103;-64
2022/02/27 07:32:23;;;;;;;4.70;1.63;;;0.20;99.90;;;;;;10341012;28;20060;-64
2022/02/27 07:37:25;;;;;;;10.13;1.67;;;0.40;99.90;;;;;;10350216;28;20078;-63
2022/02/27 07:42:27;;;;;;;3.72;1.70;;;0.60;99.90;;;;;;10348395;28;20127;-63
2022/02/27 07:47:29;;;;;;;7.88;1.58;;;0.70;99.90;;;;;;10346334;28;20499;-63
2022/02/27 07:52:30;;;;;;;7.85;2.20;;;0.90;99.90;;;;;;10349008;28;20133;-63
2022/02/27 07:57:32;;;;;;;10.57;2.40;;;1.00;99.90;;;;;;10344607;28;20037;-63
2022/02/27 08:02:34;;;;;;;8.90;2.03;;;1.20;99.90;;;;;;10348446;28;20490;-64
2022/02/27 08:07:36;;;;;;;11.02;1.77;;;1.40;99.90;;;;;;10334579;28;20058;-64
2022/02/27 08:12:45;;;;;;;7.40;2.38;;;1.50;99.90;;;;;;10344416;28;20145;-64
2022/02/27 08:17:47;;;;;;;4.78;2.00;;;1.70;99.90;;;;;;10348393;28;20113;-64
2022/02/27 08:22:49;;;;;;;4.25;1.77;;;1.80;99.90;;;;;;10345016;28;20046;-64
2022/02/27 08:27:50;;;;;;;5.50;2.17;;;2.00;99.90;;;;;;10344763;28;20136;-64
2022/02/27 08:32:52;;;;;;;11.25;3.08;;;2.20;99.90;;;;;;10347968;28;20078;-64
2022/02/27 08:37:53;;;;;;;5.75;2.05;;;2.30;99.90;;;;;;10331892;28;20143;-64
2022/02/27 08:43:01;;;;;;;8.95;2.17;;;2.50;99.90;;;;;;10348463;28;20046;-64
2022/02/27 08:48:03;;;;;;;8.35;2.40;;;2.70;99.90;;;;;;10335933;28;20054;-64
2022/02/27 08:53:05;;;;;;;7.10;1.95;;;2.80;99.90;;;;;;10341100;28;20103;-64
2022/02/27 08:58:06;;;;;;;5.28;2.05;;;3.00;99.90;;;;;;10337384;28;20127;-64
2022/02/27 09:03:10;;;;;;;7.68;2.00;;;3.10;99.90;;;;;;10332319;28;20162;-64
2022/02/27 09:08:12;;;;;;;10.43;1.85;;;3.30;99.90;;;;;;10347474;28;20065;-64
2022/02/27 09:13:14;;;;;;;13.63;2.05;;;3.40;99.90;;;;;;10341193;28;20073;-64
2022/02/27 09:18:15;;;;;;;9.10;2.13;;;3.60;99.90;;;;;;10346868;28;20042;-64
2022/02/27 09:23:17;;;;;;;6.55;2.55;;;3.80;99.90;;;;;;10342454;28;20085;-64
2022/02/27 09:28:19;;;;;;;6.18;1.92;;;4.00;99.10;;;;;;10349736;28;20104;-64
2022/02/27 09:33:21;;;;;;;6.47;1.67;;;4.20;96.90;;;;;;10343188;28;20072;-64
2022/02/27 09:38:23;;;;;;;6.72;1.73;;;4.40;95.00;;;;;;10349857;28;20595;-64
2022/02/27 09:43:24;;;;;;;9.30;1.60;;;4.60;94.30;;;;;;10345009;28;20053;-64
2022/02/27 09:48:29;;;;;;;5.47;1.88;;;4.70;92.50;;;;;;10345487;28;20049;-73
2022/02/27 09:53:30;;;;;;;6.80;1.95;;;4.90;91.30;;;;;;10331110;28;20050;-63
2022/02/27 09:58:32;;;;;;;5.35;1.13;;;5.10;87.50;;;;;;10334664;28;20134;-63
2022/02/27 10:03:34;;;;;;;8.73;1.60;;;5.20;85.80;;;;;;10343522;28;20482;-65
2022/02/27 10:08:57;;;;;;;5.30;1.60;;;5.40;85.70;;;;;;10337849;28;20060;-65
2022/02/27 10:13:59;;;;;;;8.35;1.55;;;5.40;86.20;;;;;;10344178;28;20041;-64
2022/02/27 10:19:01;;;;;;;8.13;2.15;;;5.60;84.90;;;;;;10341400;28;20138;-65
2022/02/27 10:24:14;;;;;;;3.28;1.33;;;5.80;81.20;;;;;;10343114;28;20084;-63
2022/02/27 10:29:24;;;;;;;8.20;1.80;;;5.90;81.80;;;;;;10338636;28;20046;-64
2022/02/27 10:34:32;;;;;;;9.10;2.00;;;6.00;80.80;;;;;;10340873;28;20061;-64
2022/02/27 10:39:46;;;;;;;9.38;1.58;;;6.20;78.20;;;;;;10340053;28;20049;-64
2022/02/27 10:44:56;;;;;;;5.60;1.23;;;6.30;76.50;;;;;;10341235;28;20049;-63
2022/02/27 10:50:06;;;;;;;5.25;1.17;;;6.30;76.50;;;;;;10331091;28;20462;-63
2022/02/27 10:55:14;;;;;;;4.05;1.30;;;6.50;76.40;;;;;;10337279;28;20120;-64
2022/02/27 11:00:27;;;;;;;8.13;1.58;;;6.60;75.20;;;;;;10343310;28;20563;-63
2022/02/27 11:05:35;;;;;;;5.95;0.95;;;6.70;74.70;;;;;;10340211;28;20053;-63
2022/02/27 11:10:38;;;;;;;;;;;6.70;73.30;;;;;;10336819;28;20050;-64
2022/02/27 11:15:40;;;;;;;5.32;1.30;;;6.90;73.40;;;;;;10336735;28;19925;-65
2022/02/27 11:20:42;;;;;;;4.60;0.95;;;7.10;72.80;;;;;;10341664;28;20054;-64
2022/02/27 11:25:44;;;;;;;8.25;1.80;;;7.20;71.70;;;;;;10336755;28;20073;-64
2022/02/27 11:30:52;;;;;;;6.40;1.45;;;7.10;71.30;;;;;;10343030;28;20151;-64
2022/02/27 11:35:59;;;;;;;3.63;0.90;;;7.20;70.30;;;;;;10334028;28;20104;-62
2022/02/27 11:41:11;;;;;;;5.93;1.15;;;7.30;69.60;;;;;;10335151;28;20042;-65
2022/02/27 11:46:14;;;;;;;1.25;0.70;;;7.40;69.20;;;;;;10336193;28;20061;-65
2022/02/27 11:51:38;;;;;;;4.18;1.15;;;7.80;67.30;;;;;;10337569;28;20449;-68
2022/02/27 11:56:42;;;;;;;8.48;1.10;;;8.00;64.70;;;;;;10343219;28;20050;-65
2022/02/27 12:01:47;;;;;;;4.18;1.02;;;8.30;66.60;;;;;;10344582;28;20053;-65
2022/02/27 12:07:08;;;;;;;4.65;1.27;;;8.30;64.50;;;;;;10343868;28;20449;-66
2022/02/27 12:12:40;;;;;;;3.10;0.98;;;8.60;63.50;;;;;;10340368;28;20127;-64
2022/02/27 12:17:52;;;;;;;6.28;1.05;;;9.30;63.70;;;;;;10344695;28;20042;-65
2022/02/27 12:22:54;;;;;;;4.35;0.80;;;10.40;59.40;;;;;;10341820;28;20117;-65
2022/02/27 12:27:56;;;;;;;2.45;0.88;;;10.90;56.50;;;;;;10346435;28;20080;-65
2022/02/27 12:33:06;;;;;;;1.83;0.63;;;10.90;55.80;;;;;;10344035;28;20103;-66
2022/02/27 12:38:14;;;;;;;6.43;0.95;;;10.80;55.50;;;;;;10345050;28;20053;-66
2022/02/27 12:43:15;;;;;;;3.33;0.90;;;10.60;55.80;;;;;;10344265;28;20541;-64
2022/02/27 12:48:22;;;;;;;3.40;0.60;;;10.40;56.30;;;;;;10343373;28;20053;-64
2022/02/27 12:53:27;;;;;;;4.22;1.13;;;10.10;55.20;;;;;;10344930;28;20104;-65
2022/02/27 12:58:40;;;;;;;1.98;0.73;;;10.00;54.20;;;;;;10346024;28;20046;-65
2022/02/27 13:03:42;;;;;;;1.70;1.10;;;10.00;55.50;;;;;;10347514;28;20129;-66
2022/02/27 13:08:50;;;;;;;7.70;0.95;;;9.90;56.10;;;;;;10339058;28;20050;-67
2022/02/27 13:13:52;;;;;;;2.15;0.70;;;10.00;55.60;;;;;;10339312;28;20108;-66
2022/02/27 13:18:54;;;;;;;2.92;0.90;;;10.50;54.70;;;;;;10347278;28;20121;-67
2022/02/27 13:24:01;;;;;;;1.42;0.70;;;11.70;53.40;;;;;;10341420;28;20291;-67
2022/02/27 13:29:03;;;;;;;2.72;0.70;;;12.60;60.10;;;;;;10347490;28;20138;-67
2022/02/27 13:34:06;;;;;;;1.80;0.50;;;13.60;45.80;;;;;;10336700;28;20577;-66
2022/02/27 13:39:08;;;;;;;4.25;0.65;;;14.00;44.00;;;;;;10345355;28;20071;-65
2022/02/27 13:44:09;;;;;;;3.75;1.02;;;15.50;53.10;;;;;;10343114;28;20057;-66
2022/02/27 13:49:12;;;;;;;2.22;0.60;;;16.10;42.00;;;;;;10343646;28;20497;-67
2022/02/27 13:54:23;;;;;;;1.92;0.63;;;16.70;41.70;;;;;;10344166;28;20049;-66
2022/02/27 13:59:24;;;;;;;6.15;1.20;;;17.50;38.70;;;;;;10344237;28;20061;-64
2022/02/27 14:04:26;;;;;;;0.75;0.40;;;17.70;38.80;;;;;;10341546;28;20485;-63
2022/02/27 14:09:28;;;;;;;3.53;0.70;;;18.50;38.00;;;;;;10341841;28;20077;-63
2022/02/27 14:14:30;;;;;;;1.50;0.47;;;17.70;38.40;;;;;;10341222;28;20113;-66
2022/02/27 14:19:32;;;;;;;2.17;0.65;;;17.10;38.90;;;;;;10349017;28;20050;-65
2022/02/27 14:24:43;;;;;;;5.45;0.80;;;16.70;38.60;;;;;;10344112;28;20142;-66
2022/02/27 14:29:48;;;;;;;1.70;0.70;;;16.50;40.50;;;;;;10336743;28;20050;-64
2022/02/27 14:34:51;;;;;;;2.83;0.60;;;15.90;40.00;;;;;;10343700;28;20046;-64
2022/02/27 14:40:08;;;;;;;2.05;0.60;;;15.90;41.20;;;;;;10340570;28;20112;-65
2022/02/27 14:45:10;;;;;;;2.33;0.63;;;15.80;42.00;;;;;;10323632;28;20104;-66
2022/02/27 14:50:13;;;;;;;1.70;0.75;;;15.60;42.20;;;;;;10331517;28;20127;-66
2022/02/27 14:55:15;;;;;;;1.65;0.57;;;15.20;43.40;;;;;;10336369;28;20484;-65
2022/02/27 15:00:17;;;;;;;4.78;0.85;;;15.00;44.60;;;;;;10336991;28;20056;-65
2022/02/27 15:05:24;;;;;;;2.38;0.50;;;14.90;45.10;;;;;;10330359;28;20045;-66
2022/02/27 15:10:26;;;;;;;2.40;0.50;;;14.50;44.00;;;;;;10330797;28;20124;-65
2022/02/27 15:15:30;;;;;;;4.70;1.20;;;14.20;44.30;;;;;;10343564;28;20034;-65
2022/02/27 15:20:34;;;;;;;3.30;0.50;;;14.20;45.20;;;;;;10345112;28;20054;-64
2022/02/27 15:25:37;;;;;;;2.25;0.40;;;14.00;43.90;;;;;;10340311;28;20488;-66
2022/02/27 15:30:39;;;;;;;1.73;0.40;;;13.90;44.90;;;;;;10354655;28;20049;-65
2022/02/27 15:35:42;;;;;;;3.35;0.50;;;13.70;44.90;;;;;;10347391;28;20038;-67
2022/02/27 15:40:46;;;;;;;1.25;0.43;;;13.50;45.50;;;;;;10336156;28;20085;-66
2022/02/27 15:45:48;;;;;;;3.20;0.70;;;12.90;46.40;;;;;;10337362;28;20045;-66
2022/02/27 15:50:49;;;;;;;3.10;0.40;;;13.10;46.80;;;;;;10347482;28;20045;-66
2022/02/27 15:55:55;;;;;;;2.15;0.57;;;12.80;47.70;;;;;;10342601;28;20128;-66
2022/02/27 16:00:56;;;;;;;6.25;1.50;;;12.60;48.50;;;;;;10342263;28;20041;-65
2022/02/27 16:05:58;;;;;;;3.03;0.55;;;12.20;49.40;;;;;;10349913;28;20069;-65
2022/02/27 16:11:00;;;;;;;3.42;0.60;;;11.80;50.40;;;;;;10350921;28;20107;-66
2022/02/27 16:16:02;;;;;;;3.28;0.45;;;11.20;51.80;;;;;;10334833;28;20037;-66
2022/02/27 16:21:04;;;;;;;2.20;0.50;;;10.80;53.10;;;;;;10343892;28;20053;-66
2022/02/27 16:26:06;;;;;;;4.25;0.70;;;10.30;55.40;;;;;;10344218;28;20053;-66
2022/02/27 16:31:09;;;;;;;1.17;0.45;;;10.00;55.00;;;;;;10338840;28;20041;-66
2022/02/27 16:36:12;;;;;;;3.60;0.50;;;9.60;55.40;;;;;;10347720;28;20037;-66
2022/02/27 16:41:13;;;;;;;1.38;0.50;;;9.20;55.90;;;;;;10345599;28;20435;-65
2022/02/27 16:46:17;;;;;;;1.65;0.65;;;9.00;57.20;;;;;;10337500;28;20045;-65
2022/02/27 16:51:19;;;;;;;2.30;0.80;;;8.70;59.30;;;;;;10327684;28;20047;-64
2022/02/27 16:56:21;;;;;;;2.25;0.50;;;8.40;60.50;;;;;;10337992;28;20053;-64
2022/02/27 17:01:23;;;;;;;1.58;0.52;;;8.10;62.20;;;;;;10340793;28;20108;-65
2022/02/27 17:06:25;;;;;;;3.75;1.00;;;7.80;63.40;;;;;;10340103;28;20046;-66
2022/02/27 17:11:27;;;;;;;9.77;1.25;;;7.50;64.00;;;;;;10345506;28;20061;-65
2022/02/27 17:16:29;;;;;;;1.30;0.60;;;7.30;65.40;;;;;;10343895;28;20098;-66
2022/02/27 17:21:31;;;;;;;3.30;0.88;;;7.00;67.00;;;;;;10347028;28;20038;-66
2022/02/27 17:26:33;;;;;;;2.20;0.90;;;6.70;68.00;;;;;;10343164;28;20041;-66
2022/02/27 17:31:35;;;;;;;5.00;1.10;;;6.50;68.80;;;;;;10333798;28;20054;-66
2022/02/27 17:36:37;;;;;;;5.63;1.60;;;6.30;69.10;;;;;;10334121;28;20050;-66
2022/02/27 17:41:40;;;;;;;6.35;2.85;;;6.10;69.50;;;;;;10334044;28;20525;-65
2022/02/27 17:46:42;;;;;;;9.38;3.35;;;5.90;70.00;;;;;;10334405;28;20128;-66
2022/02/27 17:51:50;;;;;;;4.97;2.15;;;5.70;71.00;;;;;;10344394;28;20207;-66
2022/02/27 17:56:51;;;;;;;;;;;5.60;71.20;;;;;;10340015;28;20065;-65
2022/02/27 18:01:53;;;;;;;1.13;0.70;;;5.40;71.60;;;;;;10327766;28;19929;-61
2022/02/27 18:06:56;;;;;;;3.50;1.13;;;5.30;72.50;;;;;;10351680;28;20042;-62
2022/02/27 18:11:57;;;;;;;1.60;0.80;;;5.10;72.80;;;;;;10341846;28;20081;-61
2022/02/27 18:17:00;;;;;;;3.85;0.93;;;5.00;72.70;;;;;;10331532;28;20081;-61
2022/02/27 18:22:02;;;;;;;2.53;0.80;;;4.80;73.30;;;;;;10320177;28;20057;-62
2022/02/27 18:27:04;;;;;;;8.32;0.73;;;4.70;73.20;;;;;;10328855;28;20062;-62
2022/02/27 18:32:07;;;;;;;2.70;1.10;;;4.60;75.50;;;;;;10317754;28;20049;-62
2022/02/27 18:37:08;;;;;;;18.05;5.50;;;4.50;75.60;;;;;;10333897;28;20052;-62
2022/02/27 18:42:10;;;;;;;23.13;8.27;;;4.30;76.20;;;;;;10339857;28;20107;-61
2022/02/27 18:47:12;;;;;;;16.52;6.05;;;4.10;77.50;;;;;;10342824;28;20056;-61
2022/02/27 18:52:14;;;;;;;10.32;4.55;;;3.90;78.80;;;;;;10338716;28;20048;-62
2022/02/27 18:57:16;;;;;;;7.30;2.95;;;3.80;79.50;;;;;;10339114;28;20164;-61
2022/02/27 19:02:17;;;;;;;7.75;4.03;;;3.60;80.50;;;;;;10340652;28;20066;-63
2022/02/27 19:07:19;;;;;;;5.72;2.88;;;3.50;81.60;;;;;;10340119;28;20041;-62
2022/02/27 19:12:21;;;;;;;6.65;2.53;;;3.40;81.50;;;;;;10348820;28;20057;-63
2022/02/27 19:17:23;;;;;;;3.75;2.33;;;3.30;82.10;;;;;;10333281;28;20049;-63
2022/02/27 19:22:25;;;;;;;3.70;1.92;;;3.20;82.30;;;;;;10339245;28;20086;-63
2022/02/27 19:27:27;;;;;;;7.40;2.55;;;3.10;83.50;;;;;;10338954;28;20123;-60
2022/02/27 19:32:29;;;;;;;5.70;2.13;;;3.00;87.10;;;;;;10330128;28;20113;-62
2022/02/27 19:37:31;;;;;;;7.05;3.55;;;2.90;85.50;;;;;;10332886;28;20702;-61
2022/02/27 19:42:33;;;;;;;13.43;3.95;;;2.80;89.70;;;;;;10335941;28;20099;-61
2022/02/27 19:47:35;;;;;;;6.55;2.85;;;2.60;91.30;;;;;;10320867;28;20131;-62
2022/02/27 19:52:38;;;;;;;6.10;2.45;;;2.50;92.00;;;;;;10338790;28;20488;-61
2022/02/27 19:57:41;;;;;;;6.10;2.15;;;2.40;92.90;;;;;;10329455;28;20055;-62
2022/02/27 20:02:44;;;;;;;9.05;2.35;;;2.40;91.70;;;;;;10306183;28;20085;-61
2022/02/27 20:07:46;;;;;;;5.45;2.65;;;2.40;91.40;;;;;;10336039;28;20044;-62
2022/02/27 20:12:48;;;;;;;7.38;3.72;;;2.30;91.60;;;;;;10353059;28;20067;-62
2022/02/27 20:17:50;;;;;;;8.82;3.67;;;2.20;91.70;;;;;;10342564;28;20703;-62
2022/02/27 20:22:52;;;;;;;11.77;3.85;;;2.20;91.50;;;;;;10341974;28;20050;-63
2022/02/27 20:27:54;;;;;;;7.25;2.95;;;2.20;91.60;;;;;;10336383;28;20052;-63
2022/02/27 20:33:00;;;;;;;8.75;3.53;;;2.10;91.90;;;;;;10341075;28;20049;-62
2022/02/27 20:38:03;;;;;;;6.28;2.63;;;2.10;92.90;;;;;;10351115;28;20057;-63
2022/02/27 20:43:09;;;;;;;4.63;2.20;;;2.00;93.80;;;;;;10345776;28;20054;-61
2022/02/27 20:48:11;;;;;;;5.75;2.47;;;2.00;94.70;;;;;;10343022;28;20042;-62
2022/02/27 20:53:13;;;;;;;7.72;3.00;;;1.90;94.50;;;;;;10351217;28;20096;-61
2022/02/27 20:58:15;;;;;;;6.47;2.47;;;1.90;93.90;;;;;;10341054;28;20093;-62
2022/02/27 21:03:17;;;;;;;11.98;3.40;;;1.90;93.80;;;;;;10342071;28;20093;-63
2022/02/27 21:08:20;;;;;;;6.63;2.17;;;1.80;94.20;;;;;;10331687;28;20424;-62
2022/02/27 21:13:22;;;;;;;8.20;2.20;;;1.70;94.90;;;;;;10331020;28;20070;-62
2022/02/27 21:18:24;;;;;;;7.40;2.85;;;1.60;95.20;;;;;;10346568;28;20595;-62
2022/02/27 21:23:26;;;;;;;7.28;1.92;;;1.50;96.80;;;;;;10319588;28;20052;-62
2022/02/27 21:28:29;;;;;;;6.30;1.75;;;1.40;96.90;;;;;;10343750;28;20553;-62
2022/02/27 21:33:32;;;;;;;11.38;1.80;;;1.30;97.80;;;;;;10344412;28;20046;-62
2022/02/27 21:38:36;;;;;;;8.55;2.67;;;1.20;99.10;;;;;;10342569;28;20073;-62
2022/02/27 21:43:38;;;;;;;9.02;2.97;;;1.10;99.90;;;;;;10341337;28;20145;-62
2022/02/27 21:48:40;;;;;;;7.50;2.33;;;1.00;99.90;;;;;;10344511;28;20056;-64
2022/02/27 21:53:41;;;;;;;5.82;2.80;;;0.90;99.90;;;;;;10343947;28;20504;-62
2022/02/27 21:58:43;;;;;;;6.28;2.45;;;0.80;99.90;;;;;;10345809;28;20103;-63
2022/02/27 22:03:45;;;;;;;8.18;2.55;;;0.80;99.90;;;;;;10343898;28;20465;-62
2022/02/27 22:08:47;;;;;;;7.70;3.22;;;0.70;99.90;;;;;;10342644;28;20556;-61
2022/02/27 22:13:48;;;;;;;7.55;2.75;;;0.60;99.90;;;;;;10335312;28;20041;-62
2022/02/27 22:18:50;;;;;;;14.18;3.25;;;0.60;99.90;;;;;;10337115;28;20057;-62
2022/02/27 22:23:53;;;;;;;7.05;2.55;;;0.50;99.90;;;;;;10344251;28;20397;-63
2022/02/27 22:28:55;;;;;;;6.65;2.50;;;0.40;99.90;;;;;;10341932;28;20497;-62
2022/02/27 22:33:56;;;;;;;8.02;2.78;;;0.30;99.90;;;;;;10326929;28;20081;-61
2022/02/27 22:38:59;;;;;;;5.35;2.42;;;0.30;99.90;;;;;;10342938;28;21395;-63
2022/02/27 22:44:01;;;;;;;5.68;2.55;;;0.20;99.90;;;;;;10332003;28;20456;-61
2022/02/27 22:49:06;;;;;;;6.38;2.70;;;0.20;99.90;;;;;;10332956;28;20833;-62
2022/02/27 22:54:09;;;;;;;4.53;1.75;;;0.10;99.90;;;;;;10325559;28;20467;-62
2022/02/27 22:59:10;;;;;;;10.32;2.67;;;0.00;99.90;;;;;;10345056;28;20050;-62
2022/02/27 23:09:33;;;;;;;10.65;2.22;;;-0.10;99.90;;;;;;10341904;28;20500;-63
2022/02/27 23:14:35;;;;;;;7.43;2.67;;;-0.10;99.90;;;;;;10339286;28;20046;-62
2022/02/27 23:19:37;;;;;;;6.72;2.13;;;-0.10;99.90;;;;;;10340668;28;20117;-62
2022/02/27 23:24:39;;;;;;;6.40;3.25;;;-0.20;99.90;;;;;;10344005;28;20050;-62
2022/02/27 23:29:40;;;;;;;6.88;2.30;;;-0.20;99.90;;;;;;10339149;28;20054;-61
2022/02/27 23:34:42;;;;;;;7.63;2.75;;;-0.30;99.90;;;;;;10335724;28;20052;-61
2022/02/27 23:39:44;;;;;;;6.25;2.92;;;-0.30;99.90;;;;;;10335737;28;20132;-61
2022/02/27 23:44:46;;;;;;;7.07;1.90;;;-0.30;99.90;;;;;;10331308;28;20159;-62
2022/02/27 23:49:48;;;;;;;6.85;2.13;;;-0.40;99.90;;;;;;10343436;28;20073;-62
2022/02/27 23:54:50;;;;;;;6.32;2.13;;;-0.40;99.90;;;;;;10351889;28;20053;-62
2022/02/27 23:59:55;;;;;;;3.63;2.20;;;-0.50;99.90;;;;;;10344669;28;20046;-61
